createdAt,value
2023-05-24T00:01:03.827Z,98802.11
2023-05-24T00:02:15.419Z,98801.05
2023-05-24T00:03:23.999Z,98798.50
2023-05-24T00:04:32.629Z,98798.33
2023-05-24T00:05:42.675Z,98798.56
2023-05-24T00:06:51.233Z,98797.61
2023-05-24T00:07:58.020Z,98796.55
2023-05-24T00:09:05.962Z,98791.61
2023-05-24T00:10:14.662Z,98790.81
2023-05-24T00:11:24.373Z,98788.76
2023-05-24T00:12:32.652Z,98787.48
2023-05-24T00:13:41.431Z,98787.16
2023-05-24T00:14:49.554Z,98784.80
2023-05-24T00:15:56.207Z,98784.41
2023-05-24T00:17:04.023Z,98781.63
2023-05-24T00:18:11.476Z,98780.91
2023-05-24T00:19:21.076Z,98779.13
2023-05-24T00:20:28.382Z,98775.95
2023-05-24T00:21:38.306Z,98776.95
2023-05-24T00:22:46.112Z,98777.45
2023-05-24T00:23:53.154Z,98777.78
2023-05-24T00:25:01.401Z,98776.56
2023-05-24T00:26:10.504Z,98775.67
2023-05-24T00:27:21.230Z,98775.02
2023-05-24T00:28:30.028Z,98776.80
2023-05-24T00:29:37.541Z,98775.73
2023-05-24T00:30:45.397Z,98777.02
2023-05-24T00:31:52.968Z,98776.14
2023-05-24T00:32:59.952Z,98773.66
2023-05-24T00:34:07.230Z,98776.30
2023-05-24T00:35:14.837Z,98776.76
2023-05-24T00:36:22.574Z,98776.20
2023-05-24T00:37:31.084Z,98776.58
2023-05-24T00:38:39.833Z,98771.96
2023-05-24T00:39:47.379Z,98769.41
2023-05-24T00:40:54.472Z,98769.73
2023-05-24T00:42:03.032Z,98771.47
2023-05-24T00:43:10.927Z,98770.91
2023-05-24T00:44:18.170Z,98771.30
2023-05-24T00:45:25.428Z,98773.54
2023-05-24T00:46:34.245Z,98774.27
2023-05-24T00:47:44.251Z,98774.63
2023-05-24T00:48:51.959Z,98774.23
2023-05-24T00:50:02.683Z,98773.11
2023-05-24T00:51:09.901Z,98773.11
2023-05-24T00:52:18.259Z,98774.30
2023-05-24T00:53:25.869Z,98779.54
2023-05-24T00:54:32.936Z,98777.70
2023-05-24T00:55:42.325Z,98774.59
2023-05-24T00:56:51.241Z,98775.94
2023-05-24T00:57:59.367Z,98773.31
2023-05-24T00:59:07.185Z,98776.33
2023-05-24T01:00:15.292Z,98773.20
2023-05-24T01:01:22.515Z,98773.20
2023-05-24T01:02:32.917Z,98771.20
2023-05-24T01:03:41.541Z,98772.70
2023-05-24T01:04:51.693Z,98772.70
2023-05-24T01:06:05.373Z,98774.11
2023-05-24T01:07:53.696Z,98777.70
2023-05-24T01:09:18.984Z,98775.66
2023-05-24T01:10:42.221Z,98775.23
2023-05-24T01:12:29.612Z,98772.39
2023-05-24T01:14:18.107Z,98770.85
2023-05-24T01:15:47.357Z,98751.82
2023-05-24T01:17:08.073Z,98753.22
2023-05-24T01:18:28.284Z,98751.46
2023-05-24T01:20:01.687Z,98751.97
2023-05-24T01:21:26.751Z,98755.19
2023-05-24T01:22:58.290Z,98757.48
2023-05-24T01:24:36.741Z,98753.91
2023-05-24T01:26:09.447Z,98752.94
2023-05-24T01:27:17.002Z,98756.74
2023-05-24T01:28:24.671Z,98759.05
2023-05-24T01:29:33.898Z,98759.00
2023-05-24T01:30:43.887Z,98765.08
2023-05-24T01:31:51.810Z,98764.34
2023-05-24T01:32:58.873Z,98767.08
2023-05-24T01:34:07.013Z,98766.59
2023-05-24T01:35:15.415Z,98768.63
2023-05-24T01:36:24.698Z,98770.95
2023-05-24T01:37:32.720Z,98770.23
2023-05-24T01:38:40.931Z,98768.39
2023-05-24T01:39:50.059Z,98769.27
2023-05-24T01:41:03.172Z,98770.78
2023-05-24T01:42:46.458Z,98767.05
2023-05-24T01:44:10.295Z,98764.98
2023-05-24T01:45:42.743Z,98766.67
2023-05-24T01:46:52.100Z,98766.38
2023-05-24T01:48:21.685Z,98762.85
2023-05-24T01:49:29.293Z,98764.25
2023-05-24T01:50:44.312Z,98764.94
2023-05-24T01:51:57.153Z,98767.48
2023-05-24T01:53:09.679Z,98764.79
2023-05-24T01:54:17.353Z,98760.38
2023-05-24T01:55:25.050Z,98760.38
2023-05-24T01:56:34.740Z,98758.94
2023-05-24T01:57:43.651Z,98761.30
2023-05-24T01:58:54.027Z,98759.95
2023-05-24T02:00:01.462Z,98759.47
2023-05-24T02:01:19.609Z,98760.95
2023-05-24T02:02:26.971Z,98760.29
2023-05-24T02:03:34.948Z,98762.91
2023-05-24T02:04:44.011Z,98759.63
2023-05-24T02:05:51.904Z,98761.38
2023-05-24T02:06:59.693Z,98761.20
2023-05-24T02:08:07.833Z,98761.44
2023-05-24T02:09:16.015Z,98761.39
2023-05-24T02:10:23.689Z,98764.17
2023-05-24T02:11:31.708Z,98764.91
2023-05-24T02:12:39.850Z,98765.52
2023-05-24T02:13:48.374Z,98766.92
2023-05-24T02:14:55.928Z,98765.87
2023-05-24T02:16:03.600Z,98764.66
2023-05-24T02:17:11.533Z,98768.96
2023-05-24T02:18:20.330Z,98770.48
2023-05-24T02:19:28.201Z,98772.54
2023-05-24T02:20:38.518Z,98773.95
2023-05-24T02:21:45.864Z,98771.01
2023-05-24T02:22:53.404Z,98771.23
2023-05-24T02:24:00.497Z,98774.75
2023-05-24T02:25:07.783Z,98776.35
2023-05-24T02:26:16.244Z,98776.64
2023-05-24T02:27:24.102Z,98775.49
2023-05-24T02:28:33.460Z,98777.89
2023-05-24T02:29:40.376Z,98778.54
2023-05-24T02:30:48.572Z,98780.28
2023-05-24T02:31:57.767Z,98785.13
2023-05-24T02:33:08.051Z,98786.15
2023-05-24T02:34:16.664Z,98788.15
2023-05-24T02:35:24.889Z,98788.71
2023-05-24T02:36:34.149Z,98791.40
2023-05-24T02:37:42.594Z,98793.67
2023-05-24T02:38:51.438Z,98790.83
2023-05-24T02:39:58.629Z,98794.40
2023-05-24T02:41:08.027Z,98791.51
2023-05-24T02:42:16.177Z,98793.98
2023-05-24T02:43:24.676Z,98796.30
2023-05-24T02:44:31.898Z,98800.05
2023-05-24T02:45:39.973Z,98804.89
2023-05-24T02:46:47.593Z,98802.89
2023-05-24T02:47:54.796Z,98804.02
2023-05-24T02:49:02.812Z,98805.45
2023-05-24T02:50:10.698Z,98803.62
2023-05-24T02:51:18.649Z,98802.96
2023-05-24T02:52:26.692Z,98804.50
2023-05-24T02:53:35.619Z,98801.16
2023-05-24T02:54:43.100Z,98802.89
2023-05-24T02:55:53.197Z,98801.38
2023-05-24T02:57:00.127Z,98802.10
2023-05-24T02:58:09.760Z,98806.07
2023-05-24T02:59:17.964Z,98805.02
2023-05-24T03:00:27.345Z,98806.42
2023-05-24T03:01:36.694Z,98803.81
2023-05-24T03:02:45.380Z,98805.98
2023-05-24T03:03:53.395Z,98802.66
2023-05-24T03:05:01.353Z,98800.83
2023-05-24T03:06:10.741Z,98800.66
2023-05-24T03:07:18.678Z,98804.00
2023-05-24T03:08:26.410Z,98801.39
2023-05-24T03:09:33.398Z,98801.22
2023-05-24T03:10:40.329Z,98803.90
2023-05-24T03:11:47.360Z,98800.71
2023-05-24T03:12:54.026Z,98801.58
2023-05-24T03:14:01.016Z,98802.20
2023-05-24T03:15:09.946Z,98799.40
2023-05-24T03:16:18.964Z,98797.80
2023-05-24T03:17:27.872Z,98800.13
2023-05-24T03:18:36.651Z,98799.96
2023-05-24T03:19:44.485Z,98797.53
2023-05-24T03:20:52.691Z,98802.32
2023-05-24T03:21:59.586Z,98805.34
2023-05-24T03:23:08.852Z,98805.57
2023-05-24T03:24:16.666Z,98804.68
2023-05-24T03:25:25.204Z,98806.02
2023-05-24T03:26:32.835Z,98806.36
2023-05-24T03:27:41.133Z,98808.39
2023-05-24T03:28:49.137Z,98810.16
2023-05-24T03:29:56.245Z,98809.05
2023-05-24T03:31:04.988Z,98812.06
2023-05-24T03:32:12.831Z,98816.74
2023-05-24T03:33:20.842Z,98815.48
2023-05-24T03:34:28.557Z,98816.58
2023-05-24T03:35:37.027Z,98819.05
2023-05-24T03:36:44.846Z,98821.14
2023-05-24T03:37:52.618Z,98825.29
2023-05-24T03:39:00.283Z,98828.13
2023-05-24T03:40:08.681Z,98830.52
2023-05-24T03:41:28.796Z,98827.23
2023-05-24T03:42:38.577Z,98828.42
2023-05-24T03:43:48.270Z,98830.80
2023-05-24T03:44:57.568Z,98831.77
2023-05-24T03:46:05.828Z,98832.33
2023-05-24T03:47:13.644Z,98832.33
2023-05-24T03:48:22.448Z,98830.98
2023-05-24T03:49:30.672Z,98827.96
2023-05-24T03:50:38.174Z,98825.73
2023-05-24T03:51:45.458Z,98825.30
2023-05-24T03:52:52.846Z,98827.40
2023-05-24T03:53:59.710Z,98825.58
2023-05-24T03:55:09.813Z,98829.80
2023-05-24T03:56:18.277Z,98829.86
2023-05-24T03:57:26.488Z,98828.91
2023-05-24T03:58:34.284Z,98833.48
2023-05-24T03:59:42.767Z,98834.79
2023-05-24T04:00:50.612Z,98838.40
2023-05-24T04:01:58.398Z,98852.11
2023-05-24T04:03:07.970Z,98855.77
2023-05-24T04:04:15.682Z,98855.21
2023-05-24T04:05:23.249Z,98852.42
2023-05-24T04:06:32.190Z,98854.04
2023-05-24T04:07:40.255Z,98856.20
2023-05-24T04:08:50.287Z,98856.60
2023-05-24T04:09:57.558Z,98856.66
2023-05-24T04:11:06.284Z,98857.77
2023-05-24T04:12:14.433Z,98859.39
2023-05-24T04:13:22.280Z,98857.45
2023-05-24T04:14:30.442Z,98861.52
2023-05-24T04:15:39.360Z,98862.23
2023-05-24T04:16:46.773Z,98860.80
2023-05-24T04:17:56.383Z,98860.73
2023-05-24T04:19:05.239Z,98859.61
2023-05-24T04:20:16.178Z,98858.33
2023-05-24T04:21:24.547Z,98859.11
2023-05-24T04:22:33.331Z,98859.45
2023-05-24T04:23:41.476Z,98861.28
2023-05-24T04:24:49.815Z,98862.00
2023-05-24T04:25:58.199Z,98859.39
2023-05-24T04:27:05.447Z,98860.50
2023-05-24T04:28:13.588Z,98859.81
2023-05-24T04:29:21.703Z,98857.98
2023-05-24T04:30:31.833Z,98858.92
2023-05-24T04:31:39.561Z,98859.48
2023-05-24T04:32:49.080Z,98860.21
2023-05-24T04:33:56.286Z,98860.84
2023-05-24T04:35:04.106Z,98859.77
2023-05-24T04:36:13.231Z,98862.80
2023-05-24T04:37:22.352Z,98862.57
2023-05-24T04:38:38.348Z,98865.68
2023-05-24T04:39:46.970Z,98867.18
2023-05-24T04:40:54.535Z,98867.20
2023-05-24T04:42:02.999Z,98869.81
2023-05-24T04:43:12.170Z,98872.43
2023-05-24T04:44:19.680Z,98868.38
2023-05-24T04:45:27.397Z,98869.02
2023-05-24T04:46:38.977Z,98870.61
2023-05-24T04:47:47.682Z,98873.71
2023-05-24T04:48:56.104Z,98874.77
2023-05-24T04:50:04.262Z,98875.00
2023-05-24T04:51:12.737Z,98876.28
2023-05-24T04:52:20.126Z,98875.73
2023-05-24T04:53:27.152Z,98876.05
2023-05-24T04:54:34.637Z,98875.00
2023-05-24T04:55:41.628Z,98878.55
2023-05-24T04:56:49.078Z,98882.29
2023-05-24T04:57:56.652Z,98883.96
2023-05-24T04:59:04.754Z,98883.17
2023-05-24T05:00:13.210Z,98882.56
2023-05-24T05:01:20.795Z,98880.79
2023-05-24T05:02:29.297Z,98880.39
2023-05-24T05:03:37.934Z,98880.56
2023-05-24T05:04:46.237Z,98879.27
2023-05-24T05:05:53.514Z,98880.23
2023-05-24T05:07:00.337Z,98880.35
2023-05-24T05:08:09.436Z,98877.10
2023-05-24T05:09:18.252Z,98876.42
2023-05-24T05:10:28.044Z,98874.75
2023-05-24T05:11:37.078Z,98871.23
2023-05-24T05:12:46.504Z,98872.52
2023-05-24T05:13:54.990Z,98873.30
2023-05-24T05:15:01.811Z,98873.63
2023-05-24T05:16:10.676Z,98871.95
2023-05-24T05:17:18.185Z,98872.45
2023-05-24T05:18:25.879Z,98869.66
2023-05-24T05:19:33.547Z,98870.77
2023-05-24T05:20:43.468Z,98871.90
2023-05-24T05:21:52.543Z,98871.17
2023-05-24T05:23:00.429Z,98871.99
2023-05-24T05:24:08.127Z,98871.84
2023-05-24T05:25:15.721Z,98869.14
2023-05-24T05:26:24.433Z,98869.09
2023-05-24T05:27:32.732Z,98869.48
2023-05-24T05:28:40.897Z,98866.59
2023-05-24T05:29:49.021Z,98864.63
2023-05-24T05:30:55.989Z,98868.36
2023-05-24T05:32:03.346Z,98866.13
2023-05-24T05:33:10.305Z,98864.69
2023-05-24T05:34:17.445Z,98865.80
2023-05-24T05:35:27.371Z,98868.70
2023-05-24T05:36:35.558Z,98871.96
2023-05-24T05:37:43.927Z,98867.98
2023-05-24T05:38:51.129Z,98868.85
2023-05-24T05:39:58.211Z,98866.79
2023-05-24T05:41:05.798Z,98865.67
2023-05-24T05:42:13.655Z,98865.90
2023-05-24T05:43:21.386Z,98865.73
2023-05-24T05:44:29.347Z,98866.22
2023-05-24T05:45:37.492Z,98863.86
2023-05-24T05:46:47.259Z,98864.02
2023-05-24T05:47:54.531Z,98861.23
2023-05-24T05:49:02.577Z,98859.30
2023-05-24T05:50:09.925Z,98859.69
2023-05-24T05:51:17.049Z,98855.02
2023-05-24T05:52:25.656Z,98857.02
2023-05-24T05:53:36.539Z,98854.61
2023-05-24T05:54:45.062Z,98854.12
2023-05-24T05:55:52.516Z,98856.74
2023-05-24T05:57:01.723Z,98855.00
2023-05-24T05:58:09.998Z,98854.78
2023-05-24T05:59:19.630Z,98857.23
2023-05-24T06:00:27.438Z,98857.73
2023-05-24T06:01:34.315Z,98858.63
2023-05-24T06:02:42.860Z,98861.02
2023-05-24T06:03:50.756Z,98861.41
2023-05-24T06:04:58.754Z,98861.64
2023-05-24T06:06:07.885Z,98860.78
2023-05-24T06:07:16.053Z,98858.09
2023-05-24T06:08:23.692Z,98858.72
2023-05-24T06:09:31.468Z,98861.52
2023-05-24T06:10:39.587Z,98861.67
2023-05-24T06:11:47.484Z,98861.98
2023-05-24T06:12:54.417Z,98862.88
2023-05-24T06:14:01.278Z,98860.88
2023-05-24T06:15:10.622Z,98859.37
2023-05-24T06:16:18.596Z,98860.99
2023-05-24T06:17:27.142Z,98861.88
2023-05-24T06:18:36.217Z,98862.27
2023-05-24T06:19:43.936Z,98864.33
2023-05-24T06:20:52.113Z,98867.39
2023-05-24T06:21:59.006Z,98864.50
2023-05-24T06:23:06.449Z,98863.95
2023-05-24T06:24:17.504Z,98864.42
2023-05-24T06:25:26.194Z,98862.70
2023-05-24T06:26:32.927Z,98861.65
2023-05-24T06:27:40.424Z,98860.98
2023-05-24T06:28:48.850Z,98860.92
2023-05-24T06:29:56.060Z,98858.80
2023-05-24T06:31:03.938Z,98857.46
2023-05-24T06:32:12.115Z,98854.67
2023-05-24T06:33:20.204Z,98850.38
2023-05-24T06:34:27.875Z,98852.38
2023-05-24T06:35:36.525Z,98851.03
2023-05-24T06:36:45.043Z,98849.91
2023-05-24T06:37:52.769Z,98848.23
2023-05-24T06:39:00.388Z,98846.31
2023-05-24T06:40:11.360Z,98847.52
2023-05-24T06:41:19.611Z,98848.31
2023-05-24T06:42:27.740Z,98851.36
2023-05-24T06:43:35.268Z,98851.20
2023-05-24T06:44:44.043Z,98847.63
2023-05-24T06:45:52.847Z,98848.52
2023-05-24T06:47:00.921Z,98847.07
2023-05-24T06:48:09.884Z,98847.63
2023-05-24T06:49:18.718Z,98849.70
2023-05-24T06:50:26.853Z,98845.07
2023-05-24T06:51:39.107Z,98842.94
2023-05-24T06:52:46.949Z,98842.77
2023-05-24T06:53:54.090Z,98841.98
2023-05-24T06:55:01.803Z,98838.46
2023-05-24T06:56:10.852Z,98839.20
2023-05-24T06:57:18.933Z,98838.64
2023-05-24T06:58:27.106Z,98839.35
2023-05-24T06:59:35.262Z,98839.42
2023-05-24T07:00:44.852Z,98838.41
2023-05-24T07:01:55.152Z,98837.13
2023-05-24T07:03:03.320Z,98837.52
2023-05-24T07:04:12.717Z,98837.52
2023-05-24T07:05:20.317Z,98836.80
2023-05-24T07:06:34.138Z,98837.59
2023-05-24T07:07:43.263Z,98837.03
2023-05-24T07:08:51.642Z,98838.02
2023-05-24T07:09:59.259Z,98837.69
2023-05-24T07:11:06.204Z,98835.68
2023-05-24T07:12:14.611Z,98834.24
2023-05-24T07:13:22.556Z,98832.90
2023-05-24T07:14:31.292Z,98831.73
2023-05-24T07:15:38.546Z,98830.54
2023-05-24T07:16:47.609Z,98827.74
2023-05-24T07:17:55.464Z,98828.73
2023-05-24T07:19:04.873Z,98829.95
2023-05-24T07:20:15.581Z,98829.36
2023-05-24T07:21:23.525Z,98831.03
2023-05-24T07:22:33.165Z,98824.96
2023-05-24T07:23:41.976Z,98822.98
2023-05-24T07:24:49.178Z,98823.21
2023-05-24T07:25:57.748Z,98825.55
2023-05-24T07:27:06.474Z,98822.77
2023-05-24T07:28:17.502Z,98821.32
2023-05-24T07:29:25.655Z,98822.30
2023-05-24T07:30:34.254Z,98817.81
2023-05-24T07:31:42.694Z,98821.98
2023-05-24T07:32:51.153Z,98817.84
2023-05-24T07:33:58.094Z,98817.77
2023-05-24T07:35:05.573Z,98818.01
2023-05-24T07:36:14.018Z,98817.38
2023-05-24T07:37:26.489Z,98819.44
2023-05-24T07:38:33.582Z,98816.08
2023-05-24T07:39:41.342Z,98813.91
2023-05-24T07:40:49.646Z,98815.45
2023-05-24T07:41:56.753Z,98818.67
2023-05-24T07:43:04.333Z,98817.56
2023-05-24T07:44:11.176Z,98815.60
2023-05-24T07:45:18.141Z,98817.14
2023-05-24T07:46:25.359Z,98818.13
2023-05-24T07:47:32.849Z,98814.39
2023-05-24T07:48:40.697Z,98813.64
2023-05-24T07:49:49.089Z,98815.52
2023-05-24T07:50:56.421Z,98814.44
2023-05-24T07:52:05.744Z,98815.27
2023-05-24T07:53:13.595Z,98816.35
2023-05-24T07:54:22.402Z,98816.38
2023-05-24T07:55:29.902Z,98819.98
2023-05-24T07:56:38.064Z,98816.01
2023-05-24T07:57:46.540Z,98814.85
2023-05-24T07:58:58.804Z,98815.15
2023-05-24T08:00:12.501Z,98812.51
2023-05-24T08:01:20.936Z,98813.52
2023-05-24T08:02:30.407Z,98810.64
2023-05-24T08:03:40.588Z,98809.33
2023-05-24T08:04:47.996Z,98808.69
2023-05-24T08:05:56.006Z,98808.45
2023-05-24T08:07:04.771Z,98808.36
2023-05-24T08:08:12.799Z,98805.09
2023-05-24T08:09:20.782Z,98806.27
2023-05-24T08:10:28.871Z,98805.08
2023-05-24T08:11:37.589Z,98805.36
2023-05-24T08:12:46.373Z,98807.34
2023-05-24T08:13:54.607Z,98804.81
2023-05-24T08:15:02.485Z,98804.90
2023-05-24T08:16:10.057Z,98804.73
2023-05-24T08:17:17.591Z,98804.52
2023-05-24T08:18:24.955Z,98807.25
2023-05-24T08:19:37.259Z,98805.79
2023-05-24T08:20:46.225Z,98806.20
2023-05-24T08:21:53.540Z,98803.98
2023-05-24T08:23:01.797Z,98801.82
2023-05-24T08:24:11.186Z,98804.02
2023-05-24T08:25:19.657Z,98805.30
2023-05-24T08:26:26.806Z,98802.90
2023-05-24T08:27:34.324Z,98801.75
2023-05-24T08:28:41.011Z,98798.75
2023-05-24T08:29:51.024Z,98800.20
2023-05-24T08:30:59.945Z,98800.84
2023-05-24T08:32:11.244Z,98802.61
2023-05-24T08:33:20.255Z,98800.28
2023-05-24T08:34:30.097Z,98797.96
2023-05-24T08:35:38.452Z,98798.34
2023-05-24T08:36:45.932Z,98798.09
2023-05-24T08:37:53.501Z,98798.85
2023-05-24T08:39:01.758Z,98795.80
2023-05-24T08:40:11.205Z,98800.16
2023-05-24T08:41:18.708Z,98797.41
2023-05-24T08:42:27.052Z,98798.61
2023-05-24T08:43:34.825Z,98800.53
2023-05-24T08:45:01.761Z,98799.48
2023-05-24T08:46:09.913Z,98794.88
2023-05-24T08:47:17.811Z,98794.15
2023-05-24T08:48:25.370Z,98795.73
2023-05-24T08:49:35.783Z,98795.71
2023-05-24T08:50:45.210Z,98795.02
2023-05-24T08:51:52.558Z,98797.54
2023-05-24T08:53:00.478Z,98791.57
2023-05-24T08:54:08.958Z,98789.09
2023-05-24T08:55:17.746Z,98791.30
2023-05-24T08:56:24.759Z,98786.06
2023-05-24T08:57:33.164Z,98786.27
2023-05-24T08:58:42.864Z,98784.33
2023-05-24T08:59:52.015Z,98785.64
2023-05-24T09:00:59.046Z,98781.94
2023-05-24T09:02:07.248Z,98783.48
2023-05-24T09:03:16.144Z,98781.80
2023-05-24T09:04:25.576Z,98782.05
2023-05-24T09:05:33.358Z,98784.88
2023-05-24T09:06:39.973Z,98782.02
2023-05-24T09:07:47.139Z,98779.66
2023-05-24T09:08:55.212Z,98778.09
2023-05-24T09:10:07.981Z,98779.14
2023-05-24T09:11:14.727Z,98780.94
2023-05-24T09:12:35.658Z,98777.76
2023-05-24T09:13:44.660Z,98776.24
2023-05-24T09:14:51.515Z,98774.17
2023-05-24T09:15:58.216Z,98771.82
2023-05-24T09:17:06.051Z,98775.44
2023-05-24T09:18:14.907Z,98771.79
2023-05-24T09:19:22.490Z,98772.99
2023-05-24T09:20:30.599Z,98772.92
2023-05-24T09:21:38.980Z,98776.38
2023-05-24T09:22:47.510Z,98780.63
2023-05-24T09:23:56.339Z,98774.91
2023-05-24T09:25:04.452Z,98778.69
2023-05-24T09:26:13.099Z,98779.17
2023-05-24T09:27:23.069Z,98776.88
2023-05-24T09:28:34.707Z,98776.27
2023-05-24T09:29:43.833Z,98777.73
2023-05-24T09:31:02.365Z,98775.16
2023-05-24T09:32:12.410Z,98775.10
2023-05-24T09:33:21.312Z,98774.95
2023-05-24T09:34:28.172Z,98774.41
2023-05-24T09:35:35.959Z,98769.88
2023-05-24T09:36:45.673Z,98765.64
2023-05-24T09:37:56.942Z,98761.17
2023-05-24T09:39:10.807Z,98767.09
2023-05-24T09:40:22.701Z,98765.52
2023-05-24T09:41:30.704Z,98760.09
2023-05-24T09:42:37.527Z,98760.35
2023-05-24T09:43:51.414Z,98762.59
2023-05-24T09:45:09.794Z,98762.76
2023-05-24T09:46:22.110Z,98762.20
2023-05-24T09:47:34.050Z,98763.48
2023-05-24T09:48:43.119Z,98760.35
2023-05-24T09:49:50.691Z,98761.58
2023-05-24T09:51:07.758Z,98763.74
2023-05-24T09:52:17.220Z,98764.56
2023-05-24T09:53:25.825Z,98762.39
2023-05-24T09:54:35.267Z,98762.80
2023-05-24T09:55:44.097Z,98761.29
2023-05-24T09:56:51.891Z,98761.21
2023-05-24T09:58:10.593Z,98763.63
2023-05-24T09:59:18.466Z,98760.50
2023-05-24T10:00:26.551Z,98762.73
2023-05-24T10:01:34.993Z,98766.98
2023-05-24T10:02:52.329Z,98767.45
2023-05-24T10:04:03.209Z,98769.85
2023-05-24T10:05:14.265Z,98773.51
2023-05-24T10:06:21.664Z,98768.74
2023-05-24T10:07:30.582Z,98770.60
2023-05-24T10:08:39.546Z,98769.26
2023-05-24T10:09:47.856Z,98768.48
2023-05-24T10:10:54.612Z,98769.02
2023-05-24T10:12:11.248Z,98771.66
2023-05-24T10:13:20.326Z,98767.09
2023-05-24T10:14:28.506Z,98767.82
2023-05-24T10:15:36.340Z,98767.91
2023-05-24T10:16:43.649Z,98767.13
2023-05-24T10:17:51.182Z,98770.23
2023-05-24T10:18:58.229Z,98767.45
2023-05-24T10:20:08.420Z,98769.79
2023-05-24T10:21:16.235Z,98775.46
2023-05-24T10:22:24.979Z,98773.11
2023-05-24T10:23:32.808Z,98775.80
2023-05-24T10:24:43.645Z,98771.65
2023-05-24T10:26:06.078Z,98770.15
2023-05-24T10:27:16.807Z,98772.77
2023-05-24T10:28:25.335Z,98772.72
2023-05-24T10:30:04.635Z,98773.47
2023-05-24T10:31:17.276Z,98773.20
2023-05-24T10:32:24.488Z,98773.77
2023-05-24T10:33:32.828Z,98775.20
2023-05-24T10:34:41.290Z,98773.86
2023-05-24T10:35:50.427Z,98774.81
2023-05-24T10:36:58.902Z,98775.21
2023-05-24T10:38:09.639Z,98781.67
2023-05-24T10:39:17.484Z,98780.51
2023-05-24T10:40:28.515Z,98784.51
2023-05-24T10:41:43.275Z,98781.95
2023-05-24T10:42:51.591Z,98786.80
2023-05-24T10:44:09.347Z,98784.34
2023-05-24T10:45:38.327Z,98783.70
2023-05-24T10:47:13.628Z,98781.20
2023-05-24T10:48:37.405Z,98782.48
2023-05-24T10:49:55.703Z,98779.85
2023-05-24T10:51:35.492Z,98785.10
2023-05-24T10:52:43.231Z,98781.09
2023-05-24T10:53:51.723Z,98782.83
2023-05-24T10:55:11.742Z,98781.44
2023-05-24T10:56:22.661Z,98783.04
2023-05-24T10:57:30.387Z,98783.92
2023-05-24T10:59:03.852Z,98784.80
2023-05-24T11:00:35.722Z,98781.22
2023-05-24T11:01:44.855Z,98779.35
2023-05-24T11:03:06.048Z,98778.00
2023-05-24T11:04:15.402Z,98779.91
2023-05-24T11:05:24.200Z,98779.35
2023-05-24T11:06:57.046Z,98781.75
2023-05-24T11:08:05.874Z,98782.23
2023-05-24T11:09:14.280Z,98784.17
2023-05-24T11:10:32.030Z,98780.98
2023-05-24T11:11:39.856Z,98784.27
2023-05-24T11:12:48.006Z,98781.42
2023-05-24T11:13:58.958Z,98785.16
2023-05-24T11:15:07.557Z,98781.41
2023-05-24T11:16:38.144Z,98784.48
2023-05-24T11:18:17.789Z,98786.60
2023-05-24T11:19:26.634Z,98786.30
2023-05-24T11:20:33.337Z,98787.91
2023-05-24T11:21:42.429Z,98788.23
2023-05-24T11:22:50.394Z,98787.70
2023-05-24T11:23:58.274Z,98792.98
2023-05-24T11:25:08.817Z,98793.92
2023-05-24T11:26:16.971Z,98793.70
2023-05-24T11:27:25.461Z,98794.42
2023-05-24T11:28:34.594Z,98791.80
2023-05-24T11:29:46.566Z,98795.74
2023-05-24T11:30:53.885Z,98797.08
2023-05-24T11:32:09.395Z,98774.56
2023-05-24T11:33:22.255Z,98768.34
2023-05-24T11:34:31.069Z,98774.16
2023-05-24T11:35:40.507Z,98771.53
2023-05-24T11:36:48.974Z,98776.02
2023-05-24T11:37:56.646Z,98777.38
2023-05-24T11:39:05.169Z,98778.40
2023-05-24T11:40:13.134Z,98777.60
2023-05-24T11:41:22.274Z,98778.27
2023-05-24T11:42:30.851Z,98781.15
2023-05-24T11:43:38.621Z,98778.46
2023-05-24T11:44:47.702Z,98777.67
2023-05-24T11:45:55.233Z,98776.16
2023-05-24T11:47:03.668Z,98775.77
2023-05-24T11:48:12.868Z,98775.02
2023-05-24T11:49:20.665Z,98773.83
2023-05-24T11:50:28.890Z,98771.19
2023-05-24T11:51:37.688Z,98770.25
2023-05-24T11:52:45.816Z,98774.42
2023-05-24T11:53:54.853Z,98772.25
2023-05-24T11:55:02.099Z,98772.91
2023-05-24T11:56:09.648Z,98772.67
2023-05-24T11:57:18.418Z,98773.02
2023-05-24T11:58:27.720Z,98772.85
2023-05-24T11:59:39.623Z,98773.51
2023-05-24T12:00:47.723Z,98771.67
2023-05-24T12:02:04.966Z,98770.87
2023-05-24T12:03:12.441Z,98772.87
2023-05-24T12:04:20.718Z,98773.56
2023-05-24T12:05:28.818Z,98773.84
2023-05-24T12:06:41.081Z,98772.81
2023-05-24T12:07:50.616Z,98773.30
2023-05-24T12:08:57.283Z,98772.42
2023-05-24T12:10:05.703Z,98772.88
2023-05-24T12:11:12.873Z,98775.24
2023-05-24T12:12:26.606Z,98772.59
2023-05-24T12:13:39.461Z,98773.52
2023-05-24T12:14:47.029Z,98769.75
2023-05-24T12:15:58.054Z,98772.74
2023-05-24T12:17:06.547Z,98770.32
2023-05-24T12:18:21.911Z,98768.84
2023-05-24T12:19:37.537Z,98769.10
2023-05-24T12:20:46.337Z,98765.48
2023-05-24T12:22:01.516Z,98766.86
2023-05-24T12:23:09.690Z,98766.86
2023-05-24T12:24:18.802Z,98769.09
2023-05-24T12:25:28.426Z,98781.38
2023-05-24T12:26:38.646Z,98778.59
2023-05-24T12:27:49.861Z,98780.59
2023-05-24T12:29:00.291Z,98773.79
2023-05-24T12:30:12.721Z,98774.97
2023-05-24T12:31:20.887Z,98777.79
2023-05-24T12:32:29.072Z,98778.02
2023-05-24T12:33:38.190Z,98777.46
2023-05-24T12:34:46.053Z,98777.46
2023-05-24T12:35:54.545Z,98779.92
2023-05-24T12:37:02.629Z,98780.15
2023-05-24T12:38:12.275Z,98781.59
2023-05-24T12:39:21.242Z,98783.33
2023-05-24T12:40:29.378Z,98783.09
2023-05-24T12:41:37.667Z,98781.22
2023-05-24T12:42:47.796Z,98783.81
2023-05-24T12:43:55.066Z,98783.32
2023-05-24T12:45:02.467Z,98783.74
2023-05-24T12:46:09.871Z,98784.23
2023-05-24T12:47:16.843Z,98781.48
2023-05-24T12:48:25.260Z,98782.22
2023-05-24T12:49:33.075Z,98786.73
2023-05-24T12:50:40.230Z,98785.05
2023-05-24T12:51:49.278Z,98786.59
2023-05-24T12:52:56.566Z,98785.17
2023-05-24T12:54:06.646Z,98784.81
2023-05-24T12:55:14.799Z,98784.38
2023-05-24T12:56:28.660Z,98789.11
2023-05-24T12:57:35.560Z,98786.34
2023-05-24T12:58:42.804Z,98786.38
2023-05-24T12:59:49.707Z,98785.85
2023-05-24T13:00:57.047Z,98789.66
2023-05-24T13:02:04.448Z,98792.65
2023-05-24T13:03:12.909Z,98791.33
2023-05-24T13:04:23.919Z,98792.16
2023-05-24T13:05:31.992Z,98791.19
2023-05-24T13:06:40.705Z,98791.06
2023-05-24T13:07:48.261Z,98791.48
2023-05-24T13:08:55.729Z,98789.27
2023-05-24T13:10:03.052Z,98790.92
2023-05-24T13:11:09.956Z,98794.40
2023-05-24T13:12:17.989Z,98795.36
2023-05-24T13:13:26.546Z,98798.83
2023-05-24T13:14:33.919Z,98798.02
2023-05-24T13:15:43.825Z,98797.42
2023-05-24T13:16:52.473Z,98799.25
2023-05-24T13:18:00.835Z,98799.99
2023-05-24T13:19:08.696Z,98801.75
2023-05-24T13:20:18.019Z,98806.52
2023-05-24T13:21:25.500Z,98804.66
2023-05-24T13:22:34.311Z,98807.12
2023-05-24T13:23:42.115Z,98813.24
2023-05-24T13:24:50.334Z,98811.09
2023-05-24T13:25:57.305Z,98813.95
2023-05-24T13:27:05.360Z,98818.89
2023-05-24T13:28:14.468Z,98815.85
2023-05-24T13:29:36.588Z,98817.25
2023-05-24T13:30:48.573Z,98820.46
2023-05-24T13:31:56.797Z,98819.88
2023-05-24T13:33:05.741Z,98822.10
2023-05-24T13:34:14.499Z,98822.50
2023-05-24T13:35:23.914Z,98827.13
2023-05-24T13:36:31.906Z,98828.38
2023-05-24T13:37:39.308Z,98827.36
2023-05-24T13:38:46.963Z,98828.60
2023-05-24T13:39:53.937Z,98825.58